createdAt,value
2018-08-11T00:01:38.849Z,40.99
2018-08-11T00:04:10.298Z,41.24
2018-08-11T00:06:41.794Z,41.27
2018-08-11T00:09:13.778Z,41.37
2018-08-11T00:11:45.405Z,41.40
2018-08-11T00:14:16.983Z,41.57
2018-08-11T00:16:48.491Z,41.71
2018-08-11T00:19:19.971Z,41.78
2018-08-11T00:21:51.568Z,41.56
2018-08-11T00:24:23.446Z,41.46
2018-08-11T00:26:54.788Z,41.82
2018-08-11T00:29:26.366Z,41.86
2018-08-11T00:31:57.833Z,41.43
2018-08-11T00:34:29.387Z,41.73
2018-08-11T00:37:00.773Z,41.50
2018-08-11T00:39:32.320Z,41.82
2018-08-11T00:42:03.756Z,42.14
2018-08-11T00:44:34.988Z,41.81
2018-08-11T00:47:05.729Z,41.82
2018-08-11T00:49:37.213Z,41.71
2018-08-11T00:52:08.721Z,41.74
2018-08-11T00:54:40.023Z,41.48
2018-08-11T00:57:14.320Z,42.17
2018-08-11T00:59:46.002Z,42.02
2018-08-11T01:02:17.556Z,41.46
2018-08-11T01:04:48.855Z,41.82
2018-08-11T01:07:20.308Z,42.06
2018-08-11T01:09:51.731Z,41.73
2018-08-11T01:12:23.391Z,41.30
2018-08-11T01:14:54.980Z,41.58
2018-08-11T01:17:26.647Z,41.90
2018-08-11T01:19:57.978Z,41.57
2018-08-11T01:22:29.557Z,41.83
2018-08-11T01:25:01.206Z,41.62
2018-08-11T01:27:32.749Z,41.44
2018-08-11T01:30:04.580Z,41.40
2018-08-11T01:32:36.213Z,41.23
2018-08-11T01:35:09.408Z,40.77
2018-08-11T01:37:41.772Z,41.01
2018-08-11T01:40:15.205Z,41.43
2018-08-11T01:42:47.739Z,41.66
2018-08-11T01:45:19.771Z,41.43
2018-08-11T01:47:50.843Z,40.98
2018-08-11T01:50:22.418Z,42.03
2018-08-11T01:52:53.760Z,41.06
2018-08-11T01:55:25.189Z,41.89
2018-08-11T01:57:56.716Z,41.38
2018-08-11T02:00:28.292Z,41.49
2018-08-11T02:02:59.791Z,41.56
2018-08-11T02:05:31.282Z,41.90
2018-08-11T02:08:02.816Z,41.53
2018-08-11T02:10:34.296Z,41.03
2018-08-11T02:13:05.790Z,41.55
2018-08-11T02:15:37.328Z,41.74
2018-08-11T02:18:08.835Z,41.33
2018-08-11T02:20:40.375Z,42.04
2018-08-11T02:23:11.805Z,41.67
2018-08-11T02:25:43.367Z,41.46
2018-08-11T02:28:15.006Z,41.64
2018-08-11T02:30:46.648Z,41.66
2018-08-11T02:33:18.203Z,41.55
2018-08-11T02:35:49.683Z,41.74
2018-08-11T02:38:20.980Z,41.67
2018-08-11T02:40:52.545Z,41.18
2018-08-11T02:43:24.226Z,41.55
2018-08-11T02:45:55.672Z,41.34
2018-08-11T02:48:27.216Z,41.63
2018-08-11T02:50:58.727Z,41.76
2018-08-11T02:53:30.229Z,41.43
2018-08-11T02:56:01.691Z,41.32
2018-08-11T02:58:33.399Z,41.80
2018-08-11T03:01:04.777Z,41.60
2018-08-11T03:03:35.822Z,42.04
2018-08-11T03:06:07.249Z,41.37
2018-08-11T03:08:38.822Z,41.49
2018-08-11T03:11:10.352Z,41.58
2018-08-11T03:13:41.764Z,42.16
2018-08-11T03:16:13.315Z,41.75
2018-08-11T03:18:44.791Z,41.59
2018-08-11T03:21:16.293Z,41.77
2018-08-11T03:23:47.761Z,41.66
2018-08-11T03:26:18.887Z,41.49
2018-08-11T03:28:50.241Z,41.51
2018-08-11T03:31:21.754Z,41.79
2018-08-11T03:33:53.200Z,42.05
2018-08-11T03:36:24.734Z,41.63
2018-08-11T03:38:55.739Z,41.88
2018-08-11T03:41:27.191Z,42.29
2018-08-11T03:43:58.732Z,41.27
2018-08-11T03:46:30.313Z,42.02
2018-08-11T03:49:01.705Z,42.38
2018-08-11T03:51:33.312Z,42.16
2018-08-11T03:54:04.821Z,42.45
2018-08-11T03:56:36.334Z,41.51
2018-08-11T03:59:08.191Z,41.85
2018-08-11T04:01:39.797Z,41.44
2018-08-11T04:04:11.037Z,41.92
2018-08-11T04:06:42.604Z,42.04
2018-08-11T04:09:14.232Z,42.15
2018-08-11T04:11:46.317Z,42.11
2018-08-11T04:14:18.025Z,42.69
2018-08-11T04:16:49.784Z,42.20
2018-08-11T04:19:21.318Z,41.86
2018-08-11T04:21:52.872Z,42.08
2018-08-11T04:24:24.441Z,41.12
2018-08-11T04:26:55.869Z,41.45
2018-08-11T04:29:27.524Z,40.91
2018-08-11T04:31:58.965Z,40.17
2018-08-11T04:34:30.662Z,39.92
2018-08-11T04:37:02.227Z,40.41
2018-08-11T04:39:33.857Z,40.37
2018-08-11T04:42:05.398Z,40.22
2018-08-11T04:44:36.992Z,39.88
2018-08-11T04:47:08.411Z,39.36
2018-08-11T04:49:39.856Z,39.97
2018-08-11T04:52:11.842Z,40.42
2018-08-11T04:54:43.305Z,39.42
2018-08-11T04:57:14.764Z,39.10
2018-08-11T04:59:46.202Z,39.13
2018-08-11T05:02:17.684Z,39.02
2018-08-11T05:04:49.228Z,39.01
2018-08-11T05:07:20.699Z,38.48
2018-08-11T05:09:52.215Z,39.13
2018-08-11T05:12:23.666Z,38.36
2018-08-11T05:14:55.208Z,39.08
2018-08-11T05:17:26.787Z,38.95
2018-08-11T05:19:58.519Z,39.05
2018-08-11T05:22:30.226Z,38.87
2018-08-11T05:25:01.701Z,38.78
2018-08-11T05:27:33.319Z,38.91
2018-08-11T05:30:04.898Z,38.98
2018-08-11T05:32:35.558Z,38.92
2018-08-11T05:35:07.706Z,38.97
2018-08-11T05:37:39.412Z,38.54
2018-08-11T05:40:11.899Z,38.40
2018-08-11T05:42:43.504Z,38.80
2018-08-11T05:45:14.915Z,38.40
2018-08-11T05:47:45.592Z,38.75
2018-08-11T05:50:17.226Z,38.37
2018-08-11T05:52:48.712Z,38.10
2018-08-11T05:55:20.336Z,38.12
2018-08-11T05:57:51.833Z,38.40
2018-08-11T06:00:23.433Z,38.25
2018-08-11T06:02:54.982Z,38.29
2018-08-11T06:05:26.652Z,38.02
2018-08-11T06:07:57.841Z,38.06
2018-08-11T06:10:29.359Z,37.98
2018-08-11T06:13:00.775Z,38.35
2018-08-11T06:15:32.503Z,38.20
2018-08-11T06:18:04.211Z,38.38
2018-08-11T06:20:35.658Z,38.32
2018-08-11T06:23:07.385Z,37.94
2018-08-11T06:25:38.999Z,37.72
2018-08-11T06:28:10.521Z,37.78
2018-08-11T06:30:41.908Z,37.82
2018-08-11T06:33:12.607Z,38.11
2018-08-11T06:35:44.229Z,37.55
2018-08-11T06:38:15.757Z,37.54
2018-08-11T06:40:47.480Z,37.68
2018-08-11T06:43:19.366Z,37.73
2018-08-11T06:45:50.988Z,37.57
2018-08-11T06:48:22.694Z,37.68
2018-08-11T06:50:54.348Z,37.25
2018-08-11T06:53:25.865Z,37.65
2018-08-11T06:55:57.419Z,37.01
2018-08-11T06:58:28.760Z,37.44
2018-08-11T07:01:00.415Z,37.08
2018-08-11T07:03:32.209Z,37.12
2018-08-11T07:06:03.790Z,36.88
2018-08-11T07:08:35.391Z,36.58
2018-08-11T07:11:06.886Z,36.05
2018-08-11T07:13:37.610Z,35.84
2018-08-11T07:16:09.216Z,36.19
2018-08-11T07:18:40.813Z,36.12
2018-08-11T07:21:12.319Z,36.12
2018-08-11T07:23:43.782Z,36.58
2018-08-11T07:26:15.445Z,36.43
2018-08-11T07:28:46.752Z,36.09
2018-08-11T07:31:18.321Z,35.89
2018-08-11T07:33:49.774Z,35.42
2018-08-11T07:36:20.868Z,35.78
2018-08-11T07:38:52.397Z,35.50
2018-08-11T07:41:25.564Z,34.78
2018-08-11T07:43:57.209Z,35.02
2018-08-11T07:46:28.737Z,34.40
2018-08-11T07:49:00.337Z,34.63
2018-08-11T07:51:31.794Z,34.37
2018-08-11T07:54:03.053Z,34.88
2018-08-11T07:56:34.722Z,33.63
2018-08-11T07:59:06.313Z,33.70
2018-08-11T08:01:37.979Z,33.55
2018-08-11T08:04:09.528Z,34.71
2018-08-11T08:06:40.995Z,34.24
2018-08-11T08:09:14.491Z,33.83
2018-08-11T08:11:46.048Z,34.16
2018-08-11T08:14:17.710Z,34.12
2018-08-11T08:16:49.327Z,34.86
2018-08-11T08:19:20.786Z,34.14
2018-08-11T08:21:52.390Z,34.44
2018-08-11T08:24:23.991Z,34.13
2018-08-11T08:26:55.717Z,34.23
2018-08-11T08:29:27.217Z,34.77
2018-08-11T08:31:58.790Z,34.19
2018-08-11T08:34:30.352Z,34.56
2018-08-11T08:37:02.004Z,34.21
2018-08-11T08:39:32.684Z,33.95
2018-08-11T08:42:04.347Z,33.87
2018-08-11T08:44:36.200Z,34.37
2018-08-11T08:47:07.675Z,34.79
2018-08-11T08:49:39.410Z,34.02
2018-08-11T08:52:11.370Z,34.84
2018-08-11T08:54:42.878Z,33.44
2018-08-11T08:57:14.636Z,34.90
2018-08-11T08:59:46.425Z,33.85
2018-08-11T09:02:17.867Z,35.91
2018-08-11T09:04:49.612Z,34.37
2018-08-11T09:07:21.191Z,35.61
2018-08-11T09:09:52.774Z,35.37
2018-08-11T09:12:24.208Z,34.58
2018-08-11T09:14:55.825Z,34.21
2018-08-11T09:17:27.693Z,35.53
2018-08-11T09:19:59.779Z,36.17
2018-08-11T09:22:31.373Z,35.70
2018-08-11T09:25:02.876Z,35.38
2018-08-11T09:27:34.717Z,35.46
2018-08-11T09:30:07.008Z,36.23
2018-08-11T09:32:38.548Z,36.18
2018-08-11T09:35:10.541Z,35.59
2018-08-11T09:37:42.209Z,35.31
2018-08-11T09:40:13.681Z,35.99
2018-08-11T09:42:45.212Z,36.26
2018-08-11T09:45:16.711Z,35.55
2018-08-11T09:47:48.495Z,35.78
2018-08-11T09:50:20.189Z,35.15
2018-08-11T09:52:51.674Z,35.67
2018-08-11T09:55:23.342Z,35.90
2018-08-11T09:58:01.326Z,35.54
2018-08-11T10:00:37.853Z,36.03
2018-08-11T10:03:09.396Z,35.89
2018-08-11T10:05:40.884Z,36.09
2018-08-11T10:08:12.623Z,35.67
2018-08-11T10:10:44.204Z,35.37
2018-08-11T10:13:15.788Z,35.34
2018-08-11T10:15:47.411Z,34.80
2018-08-11T10:18:18.881Z,34.37
2018-08-11T10:20:50.516Z,34.30
2018-08-11T10:23:21.901Z,35.60
2018-08-11T10:25:52.597Z,35.24
2018-08-11T10:28:24.194Z,33.70
2018-08-11T10:30:55.672Z,35.14
2018-08-11T10:33:27.319Z,35.37
2018-08-11T10:35:58.770Z,35.70
2018-08-11T10:38:30.477Z,33.96
2018-08-11T10:41:01.989Z,35.33
2018-08-11T10:43:33.689Z,34.84
2018-08-11T10:46:05.191Z,35.84
2018-08-11T10:48:36.823Z,34.75
2018-08-11T10:51:08.388Z,35.99
2018-08-11T10:53:39.797Z,35.98
2018-08-11T10:56:11.213Z,36.23
2018-08-11T10:58:42.694Z,35.51
2018-08-11T11:01:14.294Z,35.45
2018-08-11T11:03:45.831Z,36.39
2018-08-11T11:06:17.580Z,36.26
2018-08-11T11:08:49.218Z,35.64
2018-08-11T11:11:20.724Z,36.83
2018-08-11T11:13:52.360Z,36.16
2018-08-11T11:16:23.781Z,36.77
2018-08-11T11:18:55.304Z,37.03
2018-08-11T11:21:26.809Z,35.79
2018-08-11T11:23:57.907Z,36.38
2018-08-11T11:26:28.381Z,34.18
2018-08-11T11:28:59.864Z,34.23
2018-08-11T11:31:31.463Z,35.28
2018-08-11T11:34:02.988Z,35.50
2018-08-11T11:36:34.630Z,36.52
2018-08-11T11:39:08.726Z,35.98
2018-08-11T11:41:40.623Z,35.66
2018-08-11T11:44:12.230Z,33.81
2018-08-11T11:46:43.782Z,35.01
2018-08-11T11:49:15.901Z,34.22
2018-08-11T11:51:47.394Z,34.74
2018-08-11T11:54:18.746Z,35.06
2018-08-11T11:56:50.440Z,34.54
2018-08-11T11:59:21.881Z,34.63
2018-08-11T12:01:53.200Z,34.01
2018-08-11T12:04:24.672Z,34.58
2018-08-11T12:06:56.159Z,35.04
2018-08-11T12:09:27.738Z,34.20
2018-08-11T12:11:59.322Z,33.74
2018-08-11T12:14:30.839Z,33.80
2018-08-11T12:17:02.556Z,34.99
2018-08-11T12:19:34.044Z,33.78
2018-08-11T12:22:05.704Z,33.57
2018-08-11T12:24:37.198Z,32.58
2018-08-11T12:27:08.717Z,34.36
2018-08-11T12:29:40.707Z,34.58
2018-08-11T12:32:12.389Z,34.39
2018-08-11T12:34:44.930Z,33.70
2018-08-11T12:37:15.598Z,31.72
2018-08-11T12:39:47.206Z,32.49
2018-08-11T12:42:18.714Z,32.63
2018-08-11T12:44:50.199Z,33.84
2018-08-11T12:47:21.762Z,32.55
2018-08-11T12:49:53.391Z,32.02
2018-08-11T12:52:24.826Z,33.74
2018-08-11T12:54:56.401Z,32.33
2018-08-11T12:57:27.831Z,33.27
2018-08-11T12:59:59.365Z,32.89
2018-08-11T13:02:30.809Z,32.83
2018-08-11T13:05:02.308Z,31.99
2018-08-11T13:07:33.784Z,31.94
2018-08-11T13:10:05.845Z,32.47
2018-08-11T13:12:37.310Z,31.45
2018-08-11T13:15:09.195Z,33.30
2018-08-11T13:17:40.693Z,33.35
2018-08-11T13:20:12.208Z,33.64
2018-08-11T13:22:43.705Z,33.17
2018-08-11T13:25:15.227Z,33.44
2018-08-11T13:27:46.732Z,33.25
2018-08-11T13:30:18.305Z,33.65
2018-08-11T13:32:49.701Z,33.88
2018-08-11T13:35:21.188Z,33.80
2018-08-11T13:37:52.665Z,33.07
2018-08-11T13:40:24.225Z,33.81
2018-08-11T13:42:55.730Z,32.53
2018-08-11T13:45:27.217Z,34.35
2018-08-11T13:47:58.727Z,33.72
2018-08-11T13:50:30.285Z,33.73
2018-08-11T13:53:01.753Z,34.23
2018-08-11T13:55:33.354Z,34.63
2018-08-11T13:58:04.898Z,34.72
2018-08-11T14:00:35.565Z,34.91
2018-08-11T14:03:07.219Z,35.55
2018-08-11T14:05:38.639Z,35.54
2018-08-11T14:08:10.224Z,35.46
2018-08-11T14:10:41.631Z,35.46
2018-08-11T14:13:13.309Z,35.70
2018-08-11T14:15:44.817Z,35.22
2018-08-11T14:18:16.234Z,35.98
2018-08-11T14:20:47.739Z,35.52
2018-08-11T14:23:19.209Z,35.96
2018-08-11T14:25:50.769Z,35.74
2018-08-11T14:28:22.312Z,36.04
2018-08-11T14:30:53.803Z,35.71
2018-08-11T14:33:24.937Z,36.10
2018-08-11T14:35:55.395Z,35.95
2018-08-11T14:38:26.917Z,35.97
2018-08-11T14:40:58.413Z,36.04
2018-08-11T14:43:29.832Z,36.14
2018-08-11T14:46:01.353Z,35.44
2018-08-11T14:48:33.688Z,35.81
2018-08-11T14:51:05.488Z,35.57
2018-08-11T14:53:36.846Z,36.16
2018-08-11T14:56:08.383Z,35.90
2018-08-11T14:58:39.860Z,36.44
2018-08-11T15:01:11.685Z,35.70
2018-08-11T15:03:43.212Z,36.03
2018-08-11T15:06:14.716Z,36.18
2018-08-11T15:08:46.348Z,36.02
2018-08-11T15:11:17.810Z,36.75
2018-08-11T15:13:49.311Z,36.54
2018-08-11T15:16:20.889Z,35.94
2018-08-11T15:18:52.394Z,36.07
2018-08-11T15:21:23.842Z,35.92
2018-08-11T15:23:54.880Z,36.50
2018-08-11T15:26:26.349Z,35.94
2018-08-11T15:28:57.737Z,36.30
2018-08-11T15:31:29.229Z,36.30
2018-08-11T15:34:00.758Z,36.29
2018-08-11T15:36:32.193Z,36.97
2018-08-11T15:39:03.736Z,36.80
2018-08-11T15:41:35.319Z,37.06
2018-08-11T15:44:07.210Z,36.91
2018-08-11T15:46:38.807Z,37.15
2018-08-11T15:49:09.929Z,36.36
2018-08-11T15:51:40.322Z,34.76
2018-08-11T15:54:11.905Z,34.85
2018-08-11T15:56:43.376Z,33.48
2018-08-11T15:59:14.868Z,35.15
2018-08-11T16:01:46.367Z,34.12
2018-08-11T16:04:17.831Z,34.93
2018-08-11T16:06:49.216Z,33.59
2018-08-11T16:09:20.706Z,34.63
2018-08-11T16:11:52.236Z,33.75
2018-08-11T16:14:23.725Z,33.58
2018-08-11T16:16:55.381Z,33.95
2018-08-11T16:19:26.764Z,35.11
2018-08-11T16:21:59.390Z,34.49
2018-08-11T16:24:30.605Z,34.59
2018-08-11T16:27:02.244Z,34.42
2018-08-11T16:29:33.741Z,34.53
2018-08-11T16:32:05.401Z,34.31
2018-08-11T16:34:36.744Z,35.58
2018-08-11T16:37:08.407Z,34.37
2018-08-11T16:39:39.733Z,34.72
2018-08-11T16:42:11.321Z,34.85
2018-08-11T16:44:42.711Z,35.54
2018-08-11T16:47:14.000Z,35.42
2018-08-11T16:49:45.494Z,35.14
2018-08-11T16:52:16.986Z,35.63
2018-08-11T16:54:48.567Z,35.92
2018-08-11T16:57:19.988Z,35.92
2018-08-11T16:59:51.548Z,35.76
2018-08-11T17:02:22.928Z,35.26
2018-08-11T17:04:54.328Z,35.82
2018-08-11T17:07:25.738Z,35.85
2018-08-11T17:09:57.218Z,36.05
2018-08-11T17:12:28.750Z,36.27
2018-08-11T17:14:59.935Z,36.44
2018-08-11T17:17:30.498Z,36.10
2018-08-11T17:20:02.010Z,36.90
2018-08-11T17:22:33.520Z,36.39
2018-08-11T17:25:04.975Z,36.02
2018-08-11T17:27:35.753Z,36.88
2018-08-11T17:30:07.860Z,36.72
2018-08-11T17:32:39.460Z,36.65
2018-08-11T17:35:10.893Z,36.17
2018-08-11T17:37:41.579Z,36.73
2018-08-11T17:40:13.211Z,36.50
2018-08-11T17:42:44.730Z,36.83
2018-08-11T17:45:16.318Z,36.40
2018-08-11T17:47:47.725Z,36.69
2018-08-11T17:50:19.077Z,36.47
2018-08-11T17:52:50.615Z,36.78
2018-08-11T17:55:22.203Z,35.28
2018-08-11T17:57:53.688Z,36.55
2018-08-11T18:00:25.207Z,37.18
2018-08-11T18:02:56.659Z,36.04
2018-08-11T18:05:28.186Z,35.84
2018-08-11T18:07:59.689Z,36.27
2018-08-11T18:10:31.223Z,36.41
2018-08-11T18:13:02.659Z,35.77
2018-08-11T18:15:33.997Z,35.43
2018-08-11T18:19:47.034Z,36.56
2018-08-11T18:22:18.441Z,35.53
2018-08-11T18:24:49.602Z,36.54
2018-08-11T18:27:20.714Z,37.08
2018-08-11T18:29:52.321Z,36.49
2018-08-11T18:32:23.652Z,36.56
2018-08-11T18:34:54.696Z,36.53
2018-08-11T18:37:25.717Z,37.29
2018-08-11T18:39:56.824Z,36.99
2018-08-11T18:42:27.857Z,37.15
2018-08-11T18:44:58.867Z,36.55
2018-08-11T18:47:29.855Z,36.98
2018-08-11T18:50:00.993Z,36.27
2018-08-11T18:52:32.650Z,36.16
2018-08-11T18:55:04.483Z,36.66
2018-08-11T18:57:35.874Z,35.53
2018-08-11T19:00:14.884Z,36.44
2018-08-11T19:02:46.282Z,36.53
2018-08-11T19:05:17.760Z,36.60
2018-08-11T19:07:49.212Z,35.33
2018-08-11T19:10:20.700Z,36.55
2018-08-11T19:12:52.231Z,36.42
2018-08-11T19:15:58.587Z,34.78
2018-08-11T19:18:29.630Z,35.37
2018-08-11T19:21:00.691Z,35.91
2018-08-11T19:23:31.741Z,37.04
2018-08-11T19:26:02.917Z,35.83
2018-08-11T19:28:33.855Z,36.75
2018-08-11T19:31:04.786Z,35.59
2018-08-11T19:33:35.886Z,36.62
2018-08-11T19:36:07.625Z,35.37
2018-08-11T19:38:38.811Z,36.04
2018-08-11T19:41:09.952Z,35.61
2018-08-11T19:43:40.388Z,36.90
2018-08-11T19:46:11.695Z,35.22
2018-08-11T19:48:43.206Z,36.13
2018-08-11T19:51:14.746Z,36.68
2018-08-11T19:53:46.327Z,36.61
2018-08-11T19:56:17.818Z,37.59
2018-08-11T19:58:49.360Z,36.02
2018-08-11T20:01:21.229Z,35.81
2018-08-11T20:03:52.779Z,36.40
2018-08-11T20:06:24.424Z,37.10
2018-08-11T20:08:55.981Z,37.29
2018-08-11T20:11:27.594Z,37.23
2018-08-11T20:13:59.208Z,36.44
2018-08-11T20:16:30.655Z,37.57
2018-08-11T20:19:02.238Z,37.57
2018-08-11T20:21:33.733Z,38.43
2018-08-11T20:24:05.438Z,37.97
2018-08-11T20:26:36.993Z,38.24
2018-08-11T20:29:08.505Z,38.71
2018-08-11T20:31:39.903Z,38.65
2018-08-11T20:34:11.576Z,38.61
2018-08-11T20:36:42.873Z,37.40
2018-08-11T20:39:15.680Z,38.27
2018-08-11T20:41:47.221Z,37.75
2018-08-11T20:44:18.981Z,36.87
2018-08-11T20:46:50.681Z,38.08
2018-08-11T20:49:22.358Z,37.92
2018-08-11T20:51:53.883Z,37.81
2018-08-11T20:54:25.379Z,38.88
2018-08-11T20:56:57.009Z,37.77
2018-08-11T20:59:28.547Z,37.70
2018-08-11T21:01:59.985Z,37.61
2018-08-11T21:04:31.660Z,38.28
2018-08-11T21:07:03.204Z,38.75
2018-08-11T21:09:34.731Z,38.00
2018-08-11T21:12:06.403Z,38.04
2018-08-11T21:14:38.625Z,38.30
2018-08-11T21:17:10.220Z,37.81
2018-08-11T21:19:41.708Z,37.45
2018-08-11T21:22:13.413Z,38.58
2018-08-11T21:24:44.811Z,38.70
2018-08-11T21:27:16.340Z,38.45
2018-08-11T21:29:47.801Z,39.06
2018-08-11T21:32:19.393Z,38.66
2018-08-11T21:34:51.678Z,38.47
2018-08-11T21:37:23.306Z,38.44
2018-08-11T21:39:54.808Z,38.78
2018-08-11T21:42:26.404Z,38.46
2018-08-11T21:44:57.795Z,38.71
2018-08-11T21:47:29.233Z,39.18
2018-08-11T21:50:00.781Z,39.07
2018-08-11T21:52:32.467Z,39.02
2018-08-11T21:55:04.019Z,39.14
2018-08-11T21:57:36.316Z,39.18
2018-08-11T22:00:29.218Z,39.30
2018-08-11T22:03:01.409Z,39.35
2018-08-11T22:05:32.986Z,38.59
2018-08-11T22:08:04.802Z,39.48
2018-08-11T22:10:36.291Z,39.39
2018-08-11T22:13:07.916Z,39.08
2018-08-11T22:15:38.552Z,39.39
2018-08-11T22:18:09.976Z,39.24
2018-08-11T22:20:41.538Z,38.76
2018-08-11T22:23:13.208Z,39.03
2018-08-11T22:25:44.724Z,39.21
2018-08-11T22:28:16.414Z,39.13
2018-08-11T22:30:47.766Z,39.04
2018-08-11T22:33:19.301Z,39.73
2018-08-11T22:35:50.841Z,39.63
2018-08-11T22:38:22.398Z,39.17
2018-08-11T22:40:53.972Z,38.92
2018-08-11T22:43:25.525Z,39.02
2018-08-11T22:45:57.187Z,39.38
2018-08-11T22:48:28.715Z,39.37
2018-08-11T22:51:00.304Z,39.29
2018-08-11T22:53:31.644Z,39.23
2018-08-11T22:56:03.210Z,38.96
2018-08-11T22:58:35.223Z,39.45
2018-08-11T23:01:06.803Z,39.30
2018-08-11T23:03:38.305Z,39.33
2018-08-11T23:06:09.907Z,39.65
2018-08-11T23:08:41.531Z,38.97
2018-08-11T23:11:12.950Z,38.90
2018-08-11T23:13:43.487Z,39.56
2018-08-11T23:16:14.854Z,39.33
2018-08-11T23:18:46.384Z,39.59
2018-08-11T23:21:17.891Z,39.76
2018-08-11T23:23:49.363Z,39.65
2018-08-11T23:26:20.875Z,38.97
2018-08-11T23:28:52.369Z,39.93
2018-08-11T23:31:23.868Z,40.13
2018-08-11T23:33:55.632Z,39.82
2018-08-11T23:36:27.223Z,39.27
2018-08-11T23:38:58.697Z,39.17
2018-08-11T23:41:30.367Z,39.48
2018-08-11T23:44:01.894Z,39.35
2018-08-11T23:46:33.567Z,39.32
2018-08-11T23:49:05.213Z,40.42
2018-08-11T23:51:36.770Z,39.78
2018-08-11T23:54:08.288Z,40.12
2018-08-11T23:56:40.221Z,40.01
2018-08-11T23:59:11.763Z,39.51
